createdAt,value
2017-09-18T00:02:24.725Z,13.87
2017-09-18T00:04:52.327Z,14.07
2017-09-18T00:07:19.964Z,14.30
2017-09-18T00:09:47.552Z,12.07
2017-09-18T00:12:15.166Z,13.37
2017-09-18T00:14:42.789Z,21.30
2017-09-18T00:17:10.421Z,16.40
2017-09-18T00:19:38.058Z,16.33
2017-09-18T00:22:05.639Z,18.47
2017-09-18T00:24:33.236Z,14.83
2017-09-18T00:27:01.092Z,17.23
2017-09-18T00:29:28.687Z,13.77
2017-09-18T00:31:56.327Z,15.30
2017-09-18T00:34:23.923Z,17.80
2017-09-18T00:36:51.503Z,16.70
2017-09-18T00:39:19.139Z,13.00
2017-09-18T00:41:46.720Z,12.87
2017-09-18T00:44:14.371Z,13.63
2017-09-18T00:46:41.943Z,18.63
2017-09-18T00:49:09.543Z,12.80
2017-09-18T00:51:37.215Z,12.70
2017-09-18T00:54:04.803Z,12.63
2017-09-18T00:56:33.472Z,12.80
2017-09-18T00:59:01.066Z,11.67
2017-09-18T01:01:28.923Z,13.70
2017-09-18T01:03:56.540Z,13.47
2017-09-18T01:06:24.415Z,14.40
2017-09-18T01:08:52.038Z,12.20
2017-09-18T01:11:19.635Z,11.67
2017-09-18T01:13:47.234Z,13.10
2017-09-18T01:16:14.985Z,14.90
2017-09-18T01:18:42.943Z,10.73
2017-09-18T01:21:10.581Z,12.53
2017-09-18T01:23:38.174Z,12.53
2017-09-18T01:26:05.770Z,14.23
2017-09-18T01:28:33.397Z,12.97
2017-09-18T01:31:00.992Z,14.10
2017-09-18T01:33:28.615Z,12.63
2017-09-18T01:35:56.278Z,11.93
2017-09-18T01:38:24.144Z,14.40
2017-09-18T01:40:51.815Z,17.27
2017-09-18T01:43:19.407Z,11.43
2017-09-18T01:45:47.135Z,12.10
2017-09-18T01:48:14.724Z,13.77
2017-09-18T01:50:42.324Z,11.20
2017-09-18T01:53:09.948Z,13.60
2017-09-18T01:55:37.534Z,12.90
2017-09-18T01:58:05.229Z,11.77
2017-09-18T02:00:33.107Z,13.50
2017-09-18T02:03:00.759Z,14.17
2017-09-18T02:05:28.372Z,11.27
2017-09-18T02:07:56.252Z,13.50
2017-09-18T02:10:23.880Z,13.00
2017-09-18T02:12:51.490Z,11.20
2017-09-18T02:15:19.092Z,11.23
2017-09-18T02:17:46.783Z,12.30
2017-09-18T02:20:14.386Z,17.73
2017-09-18T02:22:42.028Z,12.10
2017-09-18T02:25:09.608Z,14.50
2017-09-18T02:27:37.214Z,12.10
2017-09-18T02:30:04.866Z,15.80
2017-09-18T02:32:32.486Z,16.47
2017-09-18T02:35:00.163Z,18.03
2017-09-18T02:37:27.768Z,13.17
2017-09-18T02:39:55.372Z,14.10
2017-09-18T02:42:22.988Z,11.27
2017-09-18T02:44:50.588Z,16.40
2017-09-18T02:47:18.401Z,12.07
2017-09-18T02:49:46.033Z,14.40
2017-09-18T02:52:13.936Z,17.50
2017-09-18T02:54:41.519Z,15.33
2017-09-18T02:57:09.149Z,11.77
2017-09-18T02:59:36.759Z,13.67
2017-09-18T03:02:04.411Z,11.47
2017-09-18T03:04:32.043Z,12.83
2017-09-18T03:06:59.629Z,12.10
2017-09-18T03:09:27.392Z,15.40
2017-09-18T03:11:55.016Z,14.37
2017-09-18T03:14:22.600Z,12.80
2017-09-18T03:16:50.181Z,12.90
2017-09-18T03:19:17.838Z,14.70
2017-09-18T03:21:45.449Z,18.10
2017-09-18T03:24:13.083Z,16.70
2017-09-18T03:26:40.686Z,14.97
2017-09-18T03:29:08.260Z,12.23
2017-09-18T03:31:35.867Z,11.80
2017-09-18T03:34:03.463Z,16.77
2017-09-18T03:36:31.093Z,12.97
2017-09-18T03:38:58.718Z,13.83
2017-09-18T03:41:26.314Z,14.47
2017-09-18T03:43:54.137Z,15.17
2017-09-18T03:46:21.743Z,13.00
2017-09-18T03:48:49.364Z,13.20
2017-09-18T03:51:16.952Z,15.67
2017-09-18T03:53:44.546Z,12.77
2017-09-18T03:56:12.164Z,14.10
2017-09-18T03:58:39.761Z,20.53
2017-09-18T04:01:07.387Z,13.17
2017-09-18T04:03:35.016Z,13.80
2017-09-18T04:06:02.613Z,12.70
2017-09-18T04:08:30.230Z,15.67
2017-09-18T04:10:57.824Z,15.17
2017-09-18T04:13:25.492Z,15.83
2017-09-18T04:15:53.109Z,13.30
2017-09-18T04:18:20.927Z,13.67
2017-09-18T04:20:48.573Z,14.23
2017-09-18T04:23:16.162Z,13.27
2017-09-18T04:25:43.804Z,16.67
2017-09-18T04:28:11.416Z,16.87
2017-09-18T04:30:39.013Z,15.87
2017-09-18T04:33:06.894Z,13.57
2017-09-18T04:35:34.723Z,15.87
2017-09-18T04:38:02.348Z,20.97
2017-09-18T04:40:30.294Z,14.00
2017-09-18T04:42:57.900Z,15.30
2017-09-18T04:45:25.621Z,13.77
2017-09-18T04:47:53.223Z,15.33
2017-09-18T04:50:20.864Z,17.37
2017-09-18T04:52:48.459Z,13.97
2017-09-18T04:55:16.070Z,16.07
2017-09-18T04:57:43.735Z,18.27
2017-09-18T05:00:11.324Z,17.17
2017-09-18T05:02:38.959Z,17.83
2017-09-18T05:05:06.548Z,17.00
2017-09-18T05:07:34.119Z,15.20
2017-09-18T05:10:01.737Z,19.73
2017-09-18T05:12:29.330Z,16.83
2017-09-18T05:14:56.976Z,19.13
2017-09-18T05:17:24.561Z,16.00
2017-09-18T05:19:52.156Z,24.20
2017-09-18T05:22:19.779Z,15.73
2017-09-18T05:24:47.361Z,16.60
2017-09-18T05:27:15.000Z,15.43
2017-09-18T05:29:42.598Z,15.60
2017-09-18T05:32:10.199Z,16.80
2017-09-18T05:34:37.816Z,18.90
2017-09-18T05:37:05.452Z,15.37
2017-09-18T05:39:33.086Z,14.90
2017-09-18T05:42:00.681Z,20.03
2017-09-18T05:44:28.268Z,19.60
2017-09-18T05:46:55.884Z,20.20
2017-09-18T05:49:23.470Z,16.27
2017-09-18T05:51:51.090Z,18.63
2017-09-18T05:54:18.685Z,16.97
2017-09-18T05:56:46.260Z,18.27
2017-09-18T05:59:14.186Z,16.27
2017-09-18T06:01:42.565Z,22.40
2017-09-18T06:04:10.228Z,16.10
2017-09-18T06:06:37.891Z,15.37
2017-09-18T06:09:05.501Z,17.07
2017-09-18T06:11:33.123Z,15.87
2017-09-18T06:14:00.732Z,18.27
2017-09-18T06:16:28.360Z,18.13
2017-09-18T06:18:56.213Z,16.60
2017-09-18T06:21:23.789Z,16.97
2017-09-18T06:23:53.870Z,16.77
2017-09-18T06:26:21.455Z,15.50
2017-09-18T06:28:49.095Z,19.73
2017-09-18T06:31:16.689Z,21.93
2017-09-18T06:33:44.300Z,21.30
2017-09-18T06:36:11.912Z,23.17
2017-09-18T06:38:39.507Z,16.10
2017-09-18T06:41:07.131Z,16.17
2017-09-18T06:43:34.716Z,16.47
2017-09-18T06:46:02.315Z,15.70
2017-09-18T06:48:29.934Z,15.40
2017-09-18T06:50:57.778Z,19.33
2017-09-18T06:53:25.735Z,16.97
2017-09-18T06:55:53.335Z,14.80
2017-09-18T06:58:20.956Z,21.80
2017-09-18T07:00:48.560Z,15.73
2017-09-18T07:03:16.146Z,18.90
2017-09-18T07:05:43.774Z,15.30
2017-09-18T07:08:11.361Z,16.30
2017-09-18T07:10:38.934Z,14.67
2017-09-18T07:13:06.836Z,16.00
2017-09-18T07:15:34.414Z,16.60
2017-09-18T07:18:02.465Z,14.53
2017-09-18T07:20:30.220Z,14.53
2017-09-18T07:22:57.796Z,13.80
2017-09-18T07:25:25.412Z,16.43
2017-09-18T07:27:54.075Z,17.07
2017-09-18T07:30:22.660Z,17.07
2017-09-18T07:32:50.256Z,17.40
2017-09-18T07:35:17.836Z,23.13
2017-09-18T07:37:45.445Z,14.37
2017-09-18T07:40:13.039Z,21.00
2017-09-18T07:42:40.669Z,16.50
2017-09-18T07:45:08.321Z,12.50
2017-09-18T07:47:35.898Z,15.40
2017-09-18T07:50:03.837Z,12.63
2017-09-18T07:52:31.439Z,13.67
2017-09-18T07:54:59.064Z,15.10
2017-09-18T07:57:26.649Z,13.83
2017-09-18T07:59:54.235Z,20.77
2017-09-18T08:02:21.863Z,11.70
2017-09-18T08:04:49.707Z,18.70
2017-09-18T08:07:17.388Z,12.00
2017-09-18T08:09:44.973Z,13.10
2017-09-18T08:12:12.582Z,12.10
2017-09-18T08:14:40.240Z,12.33
2017-09-18T08:17:07.864Z,11.57
2017-09-18T08:19:35.475Z,14.40
2017-09-18T08:22:03.347Z,13.80
2017-09-18T08:24:31.166Z,14.60
2017-09-18T08:26:58.767Z,16.20
2017-09-18T08:29:26.370Z,19.03
2017-09-18T08:31:54.235Z,14.30
2017-09-18T08:34:21.834Z,14.80
2017-09-18T08:36:49.459Z,21.83
2017-09-18T08:39:17.067Z,15.63
2017-09-18T08:41:44.656Z,17.20
2017-09-18T08:44:12.281Z,13.27
2017-09-18T08:46:39.867Z,19.07
2017-09-18T08:49:07.462Z,13.67
2017-09-18T08:51:35.095Z,13.70
2017-09-18T08:54:02.686Z,15.17
2017-09-18T08:56:30.736Z,14.60
2017-09-18T08:58:58.310Z,13.83
2017-09-18T09:01:25.898Z,16.83
2017-09-18T09:03:53.507Z,16.40
2017-09-18T09:06:21.112Z,13.63
2017-09-18T09:08:48.752Z,13.60
2017-09-18T09:11:16.633Z,12.53
2017-09-18T09:13:44.248Z,14.30
2017-09-18T09:16:11.869Z,15.03
2017-09-18T09:18:39.484Z,13.70
2017-09-18T09:21:07.115Z,13.10
2017-09-18T09:23:35.029Z,12.40
2017-09-18T09:26:02.601Z,15.10
2017-09-18T09:28:30.231Z,13.50
2017-09-18T09:30:57.820Z,11.90
2017-09-18T09:33:25.443Z,11.73
2017-09-18T09:35:53.027Z,11.20
2017-09-18T09:38:20.611Z,13.13
2017-09-18T09:40:48.466Z,13.37
2017-09-18T09:43:16.062Z,12.03
2017-09-18T09:45:44.371Z,17.83
2017-09-18T09:48:11.952Z,12.10
2017-09-18T09:50:39.544Z,15.27
2017-09-18T09:53:07.499Z,11.23
2017-09-18T09:55:35.090Z,14.00
2017-09-18T09:58:02.725Z,13.90
2017-09-18T10:00:30.302Z,12.50
2017-09-18T10:02:58.150Z,23.07
2017-09-18T10:05:25.771Z,11.43
2017-09-18T10:07:53.447Z,12.30
2017-09-18T10:10:21.052Z,14.93
2017-09-18T10:12:48.682Z,13.97
2017-09-18T10:15:16.262Z,11.90
2017-09-18T10:17:43.850Z,13.90
2017-09-18T10:20:11.466Z,13.30
2017-09-18T10:22:39.347Z,10.03
2017-09-18T10:25:06.936Z,10.50
2017-09-18T10:27:34.539Z,10.03
2017-09-18T10:30:02.339Z,10.40
2017-09-18T10:32:30.060Z,10.07
2017-09-18T10:34:57.972Z,10.07
2017-09-18T10:37:25.556Z,10.53
2017-09-18T10:39:53.172Z,9.50
2017-09-18T10:42:20.758Z,10.00
2017-09-18T10:44:48.376Z,11.00
2017-09-18T10:47:15.960Z,12.00
2017-09-18T10:49:43.542Z,10.40
2017-09-18T10:52:11.152Z,11.47
2017-09-18T10:54:38.768Z,12.10
2017-09-18T10:57:06.400Z,12.97
2017-09-18T10:59:34.030Z,23.23
2017-09-18T11:02:01.958Z,10.97
2017-09-18T11:04:29.587Z,9.60
2017-09-18T11:06:57.175Z,10.83
2017-09-18T11:09:24.827Z,11.90
2017-09-18T11:11:52.420Z,29.43
2017-09-18T11:14:20.017Z,10.60
2017-09-18T11:16:47.625Z,10.57
2017-09-18T11:19:15.509Z,10.50
2017-09-18T11:21:43.120Z,10.10
2017-09-18T11:24:10.749Z,10.00
2017-09-18T11:26:38.336Z,11.97
2017-09-18T11:29:05.969Z,10.00
2017-09-18T11:31:33.554Z,10.10
2017-09-18T11:34:01.168Z,10.17
2017-09-18T11:36:29.039Z,11.10
2017-09-18T11:38:56.624Z,21.00
2017-09-18T11:41:24.238Z,10.53
2017-09-18T11:43:51.834Z,11.37
2017-09-18T11:46:19.471Z,10.07
2017-09-18T11:48:47.056Z,9.47
2017-09-18T11:51:14.628Z,10.37
2017-09-18T11:53:42.232Z,11.37
2017-09-18T11:56:09.836Z,10.63
2017-09-18T11:58:37.457Z,10.33
2017-09-18T12:01:05.057Z,9.53
2017-09-18T12:03:32.923Z,11.13
2017-09-18T12:06:00.540Z,11.00
2017-09-18T12:08:28.114Z,9.37
2017-09-18T12:10:55.737Z,9.80
2017-09-18T12:13:23.344Z,10.27
2017-09-18T12:15:51.041Z,10.40
2017-09-18T12:18:18.663Z,13.37
2017-09-18T12:20:46.258Z,13.30
2017-09-18T12:23:13.883Z,9.50
2017-09-18T12:25:41.465Z,12.60
2017-09-18T12:28:09.048Z,10.60
2017-09-18T12:30:36.657Z,8.80
2017-09-18T12:33:04.251Z,8.87
2017-09-18T12:35:31.883Z,8.73
2017-09-18T12:37:59.464Z,8.97
2017-09-18T12:40:27.045Z,8.80
2017-09-18T12:42:54.664Z,10.07
2017-09-18T12:45:22.250Z,9.43
2017-09-18T12:47:49.911Z,13.23
2017-09-18T12:50:17.564Z,9.37
2017-09-18T12:52:45.146Z,9.60
2017-09-18T12:55:12.769Z,9.90
2017-09-18T12:57:40.355Z,9.83
2017-09-18T13:00:07.988Z,10.33
2017-09-18T13:02:35.604Z,15.40
2017-09-18T13:05:03.207Z,9.60
2017-09-18T13:07:30.824Z,9.53
2017-09-18T13:09:58.419Z,10.43
2017-09-18T13:12:26.060Z,11.23
2017-09-18T13:14:53.683Z,9.13
2017-09-18T13:17:21.289Z,9.40
2017-09-18T13:19:49.255Z,11.30
2017-09-18T13:22:17.162Z,9.93
2017-09-18T13:24:45.120Z,15.93
2017-09-18T13:27:12.735Z,9.00
2017-09-18T13:29:40.429Z,9.10
2017-09-18T13:32:08.045Z,9.10
2017-09-18T13:34:35.793Z,9.47
2017-09-18T13:37:03.679Z,9.37
2017-09-18T13:39:32.670Z,11.10
2017-09-18T13:42:00.302Z,10.40
2017-09-18T13:44:27.968Z,9.30
2017-09-18T13:46:55.543Z,9.47
2017-09-18T13:49:23.155Z,10.10
2017-09-18T13:51:50.744Z,9.93
2017-09-18T13:54:18.352Z,9.20
2017-09-18T13:56:46.032Z,9.70
2017-09-18T13:59:13.608Z,18.47
2017-09-18T14:01:41.375Z,9.33
2017-09-18T14:04:09.782Z,10.70
2017-09-18T14:06:37.361Z,9.83
2017-09-18T14:09:04.990Z,9.80
2017-09-18T14:11:32.617Z,10.30
2017-09-18T14:14:00.271Z,11.13
2017-09-18T14:16:27.856Z,13.17
2017-09-18T14:18:55.452Z,9.83
2017-09-18T14:21:23.095Z,9.63
2017-09-18T14:23:50.689Z,9.57
2017-09-18T14:26:18.310Z,9.60
2017-09-18T14:28:45.889Z,10.83
2017-09-18T14:31:13.459Z,9.43
2017-09-18T14:33:41.068Z,9.20
2017-09-18T14:36:08.867Z,9.87
2017-09-18T14:38:36.724Z,10.00
2017-09-18T14:41:04.296Z,9.60
2017-09-18T14:43:31.993Z,11.40
2017-09-18T14:45:59.636Z,10.43
2017-09-18T14:48:27.232Z,11.50
2017-09-18T14:50:54.856Z,14.80
2017-09-18T14:53:22.505Z,9.40
2017-09-18T14:55:50.104Z,10.70
2017-09-18T14:58:17.795Z,9.63
2017-09-18T15:00:45.403Z,9.60
2017-09-18T15:03:13.054Z,9.47
2017-09-18T15:05:40.676Z,21.97
2017-09-18T15:08:08.374Z,11.73
2017-09-18T15:10:36.008Z,10.40
2017-09-18T15:13:03.608Z,11.10
2017-09-18T15:15:31.343Z,13.67
2017-09-18T15:17:59.048Z,9.77
2017-09-18T15:20:27.008Z,9.40
2017-09-18T15:22:54.651Z,11.23
2017-09-18T15:25:22.263Z,9.43
2017-09-18T15:27:50.104Z,9.70
2017-09-18T15:30:17.735Z,11.93
2017-09-18T15:32:45.619Z,9.43
2017-09-18T15:35:13.263Z,11.93
2017-09-18T15:37:40.884Z,9.90
2017-09-18T15:40:08.597Z,13.03
2017-09-18T15:42:36.227Z,10.10
2017-09-18T15:45:04.146Z,9.40
2017-09-18T15:47:31.787Z,9.20
2017-09-18T15:49:59.384Z,9.40
2017-09-18T15:52:27.043Z,9.80
2017-09-18T15:54:54.647Z,11.70
2017-09-18T15:57:22.230Z,9.90
2017-09-18T15:59:49.909Z,11.67
2017-09-18T16:02:17.501Z,9.60
2017-09-18T16:04:45.150Z,9.57
2017-09-18T16:07:12.757Z,17.83
2017-09-18T16:09:40.668Z,9.60
2017-09-18T16:12:08.331Z,10.43
2017-09-18T16:14:36.116Z,9.70
2017-09-18T16:17:03.751Z,9.63
2017-09-18T16:19:31.325Z,9.83
2017-09-18T16:21:58.901Z,9.93
2017-09-18T16:24:26.517Z,10.30
2017-09-18T16:26:54.107Z,9.63
2017-09-18T16:29:21.766Z,10.00
2017-09-18T16:31:49.647Z,9.60
2017-09-18T16:34:17.506Z,10.50
2017-09-18T16:36:45.194Z,12.73
2017-09-18T16:39:12.801Z,10.40
2017-09-18T16:41:40.432Z,11.77
2017-09-18T16:44:08.029Z,10.10
2017-09-18T16:46:35.727Z,10.53
2017-09-18T16:49:03.349Z,9.90
2017-09-18T16:51:30.944Z,11.13
2017-09-18T16:53:58.574Z,15.40
2017-09-18T16:56:26.165Z,9.57
2017-09-18T16:58:53.752Z,13.17
2017-09-18T17:01:21.405Z,10.93
2017-09-18T17:03:49.262Z,10.07
2017-09-18T17:06:16.947Z,12.70
2017-09-18T17:08:44.562Z,14.80
2017-09-18T17:11:12.147Z,11.30
2017-09-18T17:13:39.728Z,12.23
2017-09-18T17:16:07.362Z,11.37
2017-09-18T17:18:35.250Z,14.60
2017-09-18T17:21:02.849Z,16.33
2017-09-18T17:23:30.868Z,15.17
2017-09-18T17:25:58.488Z,15.80
2017-09-18T17:28:26.135Z,29.10
2017-09-18T17:30:53.726Z,19.40
2017-09-18T17:33:21.612Z,15.70
2017-09-18T17:35:49.287Z,14.00
2017-09-18T17:38:16.939Z,14.40
2017-09-18T17:40:44.611Z,15.87
2017-09-18T17:43:12.226Z,14.03
2017-09-18T17:45:39.813Z,15.67
2017-09-18T17:48:07.436Z,14.07
2017-09-18T17:50:35.732Z,14.13
2017-09-18T17:53:03.638Z,15.37
2017-09-18T17:55:31.234Z,15.50
2017-09-18T17:57:58.839Z,17.53
2017-09-18T18:00:26.535Z,13.20
2017-09-18T18:02:54.183Z,12.87
2017-09-18T18:05:21.821Z,13.93
2017-09-18T18:07:49.441Z,14.10
2017-09-18T18:10:17.026Z,16.93
2017-09-18T18:12:44.656Z,16.97
2017-09-18T18:15:12.263Z,13.87
2017-09-18T18:17:39.958Z,15.57
2017-09-18T18:20:07.563Z,16.97
2017-09-18T18:22:35.494Z,13.57
2017-09-18T18:25:03.115Z,15.47
2017-09-18T18:27:30.752Z,13.60
2017-09-18T18:29:58.693Z,22.70
2017-09-18T18:32:26.304Z,34.77
2017-09-18T18:34:53.920Z,15.07
2017-09-18T18:37:21.550Z,18.87
2017-09-18T18:39:49.171Z,17.97
2017-09-18T18:42:17.435Z,15.90
2017-09-18T18:44:45.090Z,15.43
2017-09-18T18:47:12.719Z,21.57
2017-09-18T18:49:40.346Z,18.80
2017-09-18T18:52:07.947Z,18.80
2017-09-18T18:54:35.630Z,21.90
2017-09-18T18:57:03.230Z,19.93
2017-09-18T18:59:30.949Z,20.17
2017-09-18T19:01:58.650Z,17.00
2017-09-18T19:04:26.265Z,18.50
2017-09-18T19:06:53.896Z,16.17
2017-09-18T19:09:21.646Z,18.03
2017-09-18T19:11:49.578Z,18.07
2017-09-18T19:14:17.222Z,16.70
2017-09-18T19:16:44.808Z,19.10
2017-09-18T19:19:12.431Z,19.20
2017-09-18T19:21:40.024Z,21.30
2017-09-18T19:24:07.626Z,22.53
2017-09-18T19:26:35.271Z,16.67
2017-09-18T19:29:02.931Z,18.30
2017-09-18T19:31:30.590Z,16.73
2017-09-18T19:33:58.193Z,20.63
2017-09-18T19:36:25.794Z,13.97
2017-09-18T19:38:53.404Z,15.77
2017-09-18T19:41:21.017Z,18.90
2017-09-18T19:43:48.644Z,20.40
2017-09-18T19:46:16.235Z,14.50
2017-09-18T19:48:43.844Z,21.60
2017-09-18T19:51:11.462Z,21.33
2017-09-18T19:53:39.048Z,19.00
2017-09-18T19:56:06.673Z,16.97
2017-09-18T19:58:34.265Z,18.00
2017-09-18T20:01:02.086Z,17.87
2017-09-18T20:03:29.695Z,18.63
2017-09-18T20:05:57.543Z,16.57
2017-09-18T20:08:25.168Z,23.27
2017-09-18T20:10:52.808Z,16.40
2017-09-18T20:13:20.386Z,17.80
2017-09-18T20:15:48.308Z,20.67
2017-09-18T20:18:16.065Z,19.07
2017-09-18T20:20:43.716Z,16.50
2017-09-18T20:23:11.317Z,16.80
2017-09-18T20:25:39.156Z,19.80
2017-09-18T20:28:07.037Z,16.47
2017-09-18T20:30:35.435Z,17.20
2017-09-18T20:33:03.279Z,17.20
2017-09-18T20:35:30.860Z,19.10
2017-09-18T20:37:58.525Z,17.33
2017-09-18T20:40:26.155Z,18.43
2017-09-18T20:42:53.758Z,20.80
2017-09-18T20:45:21.380Z,18.77
2017-09-18T20:47:48.974Z,20.50
2017-09-18T20:50:16.812Z,16.67
2017-09-18T20:52:44.487Z,18.50
2017-09-18T20:55:12.071Z,20.60
2017-09-18T20:57:39.687Z,22.33
2017-09-18T21:00:07.280Z,21.87
2017-09-18T21:02:35.234Z,18.37
2017-09-18T21:05:02.849Z,20.17
2017-09-18T21:07:30.761Z,18.17
2017-09-18T21:09:58.402Z,18.40
2017-09-18T21:12:26.008Z,18.93
2017-09-18T21:14:53.646Z,20.40
2017-09-18T21:17:21.352Z,20.07
2017-09-18T21:19:49.027Z,20.20
2017-09-18T21:22:16.945Z,20.10
2017-09-18T21:24:44.558Z,18.80
2017-09-18T21:27:12.665Z,17.67
2017-09-18T21:29:40.306Z,18.30
2017-09-18T21:32:08.224Z,18.07
2017-09-18T21:34:36.011Z,18.30
2017-09-18T21:37:03.630Z,19.60
2017-09-18T21:39:31.276Z,19.73
2017-09-18T21:41:58.942Z,23.27
2017-09-18T21:44:26.546Z,21.70
2017-09-18T21:46:54.182Z,17.90
2017-09-18T21:49:22.066Z,26.70
2017-09-18T21:51:49.663Z,22.17
2017-09-18T21:54:17.286Z,20.77
2017-09-18T21:56:44.876Z,18.20
2017-09-18T21:59:12.495Z,16.53
2017-09-18T22:01:40.092Z,20.20
2017-09-18T22:04:07.932Z,25.53
2017-09-18T22:06:35.560Z,18.90
2017-09-18T22:09:03.135Z,26.43
2017-09-18T22:11:30.781Z,24.33
2017-09-18T22:13:58.506Z,16.47
2017-09-18T22:16:26.359Z,20.93
2017-09-18T22:18:53.985Z,19.03
2017-09-18T22:21:21.564Z,16.70
2017-09-18T22:23:49.558Z,16.30
2017-09-18T22:26:17.174Z,16.03
2017-09-18T22:28:44.755Z,16.67
2017-09-18T22:31:12.641Z,18.43
2017-09-18T22:33:40.308Z,17.23
2017-09-18T22:36:08.272Z,18.67
2017-09-18T22:38:36.145Z,18.47
2017-09-18T22:41:03.738Z,18.07
2017-09-18T22:43:31.352Z,16.60
2017-09-18T22:45:58.930Z,17.13
2017-09-18T22:48:26.560Z,19.27
2017-09-18T22:50:54.155Z,28.93
2017-09-18T22:53:21.740Z,19.37
2017-09-18T22:55:49.375Z,17.50
2017-09-18T22:58:16.953Z,19.87
2017-09-18T23:00:44.907Z,17.53
2017-09-18T23:03:12.508Z,15.30
2017-09-18T23:05:40.088Z,16.57
2017-09-18T23:08:07.705Z,15.30
2017-09-18T23:10:35.339Z,19.10
2017-09-18T23:13:02.963Z,17.70
2017-09-18T23:15:30.552Z,20.83
2017-09-18T23:17:58.126Z,16.33
2017-09-18T23:20:25.765Z,28.33
2017-09-18T23:22:53.373Z,19.43
2017-09-18T23:25:21.001Z,23.43
2017-09-18T23:27:48.592Z,17.67
2017-09-18T23:30:16.163Z,17.40
2017-09-18T23:32:43.770Z,24.67
2017-09-18T23:35:11.369Z,16.03
2017-09-18T23:37:38.988Z,16.20
2017-09-18T23:40:06.567Z,17.97
2017-09-18T23:42:34.168Z,20.20
2017-09-18T23:45:01.798Z,21.63
2017-09-18T23:47:29.679Z,17.90
2017-09-18T23:49:57.311Z,19.77
2017-09-18T23:52:24.976Z,15.03
2017-09-18T23:54:52.584Z,17.80
2017-09-18T23:57:20.199Z,16.37
2017-09-18T23:59:47.820Z,17.30
